createdAt,value
2023-02-22T00:03:51.527Z,7.05
2023-02-22T00:08:53.319Z,7.03
2023-02-22T00:13:57.249Z,6.97
2023-02-22T00:18:58.750Z,7.20
2023-02-22T00:24:00.038Z,7.35
2023-02-22T00:29:01.410Z,7.25
2023-02-22T00:34:02.656Z,6.43
2023-02-22T00:39:03.919Z,6.97
2023-02-22T00:44:05.223Z,7.53
2023-02-22T00:49:06.560Z,6.57
2023-02-22T00:54:08.214Z,6.22
2023-02-22T00:59:09.500Z,6.97
2023-02-22T01:04:10.793Z,6.47
2023-02-22T01:09:12.062Z,6.70
2023-02-22T01:14:13.355Z,6.43
2023-02-22T01:19:14.626Z,5.90
2023-02-22T01:24:16.754Z,6.68
2023-02-22T01:29:18.474Z,6.65
2023-02-22T01:34:20.025Z,6.23
2023-02-22T01:39:21.292Z,5.97
2023-02-22T01:44:31.584Z,6.35
2023-02-22T01:49:36.895Z,5.97
2023-02-22T01:54:40.723Z,5.72
2023-02-22T01:59:44.444Z,5.93
2023-02-22T02:04:45.942Z,6.20
2023-02-22T02:09:51.834Z,6.07
2023-02-22T02:14:53.412Z,5.50
2023-02-22T02:19:54.645Z,6.10
2023-02-22T02:25:19.000Z,6.03
2023-02-22T02:30:36.936Z,5.80
2023-02-22T02:35:59.845Z,5.90
2023-02-22T02:41:04.734Z,5.85
2023-02-22T02:46:09.117Z,5.50
2023-02-22T02:51:11.320Z,5.60
2023-02-22T02:56:12.705Z,5.05
2023-02-22T03:01:15.230Z,5.93
2023-02-22T03:06:26.998Z,5.32
2023-02-22T03:11:31.342Z,5.30
2023-02-22T03:16:32.673Z,5.50
2023-02-22T03:21:47.901Z,5.50
2023-02-22T03:26:56.823Z,4.93
2023-02-22T03:32:01.820Z,4.78
2023-02-22T03:37:06.455Z,4.97
2023-02-22T03:42:14.388Z,4.90
2023-02-22T03:47:21.649Z,4.80
2023-02-22T03:52:25.697Z,4.70
2023-02-22T03:57:29.852Z,4.57
2023-02-22T04:02:31.108Z,4.20
2023-02-22T04:07:32.365Z,5.17
2023-02-22T04:12:33.690Z,4.68
2023-02-22T04:17:34.972Z,4.70
2023-02-22T04:22:36.255Z,4.75
2023-02-22T04:27:37.544Z,4.80
2023-02-22T04:32:39.357Z,4.63
2023-02-22T04:37:40.686Z,4.75
2023-02-22T04:42:42.122Z,5.32
2023-02-22T04:47:43.436Z,5.45
2023-02-22T04:52:45.648Z,4.97
2023-02-22T04:57:46.922Z,5.30
2023-02-22T05:02:48.415Z,4.57
2023-02-22T05:07:50.146Z,5.10
2023-02-22T05:12:51.788Z,4.68
2023-02-22T05:17:53.475Z,6.38
2023-02-22T05:22:55.675Z,5.83
2023-02-22T05:27:58.623Z,5.22
2023-02-22T05:33:00.484Z,5.35
2023-02-22T05:38:03.533Z,4.88
2023-02-22T05:43:04.805Z,4.95
2023-02-22T05:48:06.082Z,4.70
2023-02-22T05:53:07.540Z,6.28
2023-02-22T05:58:08.822Z,6.85
2023-02-22T06:03:10.789Z,5.55
2023-02-22T06:08:12.091Z,5.90
2023-02-22T06:13:13.392Z,6.47
2023-02-22T06:18:14.714Z,5.72
2023-02-22T06:23:15.991Z,5.50
2023-02-22T06:28:17.242Z,5.53
2023-02-22T06:33:18.517Z,6.20
2023-02-22T06:38:23.421Z,5.07
2023-02-22T06:43:24.947Z,5.13
2023-02-22T06:48:26.251Z,5.10
2023-02-22T06:53:27.883Z,4.88
2023-02-22T06:58:29.165Z,5.80
2023-02-22T07:03:30.455Z,5.23
2023-02-22T07:08:31.759Z,5.40
2023-02-22T07:13:33.015Z,5.15
2023-02-22T07:18:34.425Z,5.50
2023-02-22T07:23:36.168Z,5.32
2023-02-22T07:28:37.498Z,5.63
2023-02-22T07:33:38.769Z,5.50
2023-02-22T07:38:40.569Z,5.93
2023-02-22T07:43:41.844Z,5.10
2023-02-22T07:48:43.227Z,5.15
2023-02-22T07:53:44.546Z,5.27
2023-02-22T07:58:45.858Z,5.13
2023-02-22T08:03:47.567Z,5.32
2023-02-22T08:08:48.913Z,5.22
2023-02-22T08:13:50.173Z,5.55
2023-02-22T08:18:51.475Z,6.30
2023-02-22T08:23:54.251Z,5.65
2023-02-22T08:28:55.631Z,5.15
2023-02-22T08:33:57.092Z,5.88
2023-02-22T08:38:58.917Z,5.25
2023-02-22T08:44:02.383Z,5.17
2023-02-22T08:49:03.686Z,5.10
2023-02-22T08:54:06.834Z,4.53
2023-02-22T08:59:08.534Z,5.30
2023-02-22T09:04:09.916Z,5.63
2023-02-22T09:09:11.219Z,4.77
2023-02-22T09:14:14.411Z,5.25
2023-02-22T09:19:15.714Z,4.88
2023-02-22T09:24:17.013Z,6.67
2023-02-22T09:29:22.643Z,4.68
2023-02-22T09:34:29.531Z,4.07
2023-02-22T09:39:31.048Z,4.20
2023-02-22T09:44:38.968Z,4.18
2023-02-22T09:49:47.244Z,3.87
2023-02-22T09:54:52.053Z,5.07
2023-02-22T10:00:13.178Z,4.30
2023-02-22T10:05:20.905Z,4.10
2023-02-22T10:10:23.275Z,3.95
2023-02-22T10:15:42.382Z,3.73
2023-02-22T10:21:07.635Z,3.30
2023-02-22T10:26:14.733Z,3.77
2023-02-22T10:31:28.259Z,3.42
2023-02-22T10:36:29.768Z,3.17
2023-02-22T10:41:32.391Z,3.70
2023-02-22T10:46:34.164Z,4.00
2023-02-22T10:51:35.446Z,4.80
2023-02-22T10:56:46.200Z,4.90
2023-02-22T11:01:47.576Z,5.53
2023-02-22T11:07:06.419Z,5.50
2023-02-22T11:12:09.229Z,6.90
2023-02-22T11:17:13.851Z,5.90
2023-02-22T11:22:23.337Z,6.53
2023-02-22T11:27:31.647Z,6.53
2023-02-22T11:32:33.079Z,5.83
2023-02-22T11:37:36.418Z,5.90
2023-02-22T11:42:37.775Z,5.80
2023-02-22T11:47:56.178Z,5.43
2023-02-22T11:53:18.221Z,6.15
2023-02-22T11:58:42.887Z,5.70
2023-02-22T12:03:58.377Z,5.78
2023-02-22T12:09:33.001Z,5.80
2023-02-22T12:14:43.279Z,5.80
2023-02-22T12:19:50.065Z,6.47
2023-02-22T12:25:09.733Z,6.17
2023-02-22T12:30:14.668Z,7.18
2023-02-22T12:35:21.516Z,6.53
2023-02-22T12:40:37.909Z,5.73
2023-02-22T12:45:50.661Z,6.28
2023-02-22T12:50:58.058Z,6.27
2023-02-22T12:56:03.821Z,6.40
2023-02-22T13:01:14.684Z,7.20
2023-02-22T13:06:42.165Z,6.40
2023-02-22T13:11:46.255Z,6.78
2023-02-22T13:16:53.476Z,6.30
2023-02-22T13:21:54.785Z,7.17
2023-02-22T13:26:58.830Z,7.40
2023-02-22T13:32:12.420Z,6.55
2023-02-22T13:37:30.242Z,6.10
2023-02-22T13:42:52.242Z,6.03
2023-02-22T13:47:53.518Z,8.80
2023-02-22T13:52:55.824Z,8.70
2023-02-22T13:58:05.703Z,6.82
2023-02-22T14:03:18.018Z,7.17
2023-02-22T14:08:19.365Z,7.17
2023-02-22T14:13:22.647Z,6.80
2023-02-22T14:18:24.642Z,7.63
2023-02-22T14:23:33.620Z,8.00
2023-02-22T14:28:43.417Z,7.97
2023-02-22T14:33:53.744Z,7.47
2023-02-22T14:38:58.138Z,8.57
2023-02-22T14:44:03.679Z,7.32
2023-02-22T14:49:09.887Z,7.63
2023-02-22T14:54:18.456Z,8.13
2023-02-22T14:59:21.513Z,8.20
2023-02-22T15:04:28.001Z,11.20
2023-02-22T15:09:34.388Z,8.60
2023-02-22T15:14:40.861Z,8.07
2023-02-22T15:19:42.345Z,8.27
2023-02-22T15:24:44.005Z,8.40
2023-02-22T15:29:45.773Z,8.80
2023-02-22T15:34:47.060Z,8.47
2023-02-22T15:39:48.278Z,8.65
2023-02-22T15:44:52.389Z,9.50
2023-02-22T15:50:15.171Z,8.77
2023-02-22T15:55:17.081Z,8.35
2023-02-22T16:00:20.084Z,9.17
2023-02-22T16:05:32.042Z,10.03
2023-02-22T16:10:36.955Z,9.55
2023-02-22T16:15:38.296Z,10.73
2023-02-22T16:20:39.581Z,11.00
2023-02-22T16:25:41.853Z,10.48
2023-02-22T16:30:43.257Z,14.07
2023-02-22T16:35:51.918Z,11.82
2023-02-22T16:40:55.165Z,11.30
2023-02-22T16:45:56.487Z,12.27
2023-02-22T16:51:02.410Z,10.57
2023-02-22T16:56:05.204Z,10.63
2023-02-22T17:01:06.670Z,9.70
2023-02-22T17:06:10.454Z,13.07
2023-02-22T17:11:12.793Z,11.00
2023-02-22T17:16:14.806Z,9.90
2023-02-22T17:21:16.660Z,10.93
2023-02-22T17:26:18.246Z,11.82
2023-02-22T17:31:22.017Z,10.02
2023-02-22T17:36:23.610Z,12.00
2023-02-22T17:41:25.180Z,11.85
2023-02-22T17:46:26.592Z,11.73
2023-02-22T17:51:27.942Z,12.77
2023-02-22T17:56:29.312Z,13.10
2023-02-22T18:01:31.568Z,12.20
2023-02-22T18:06:32.994Z,14.20
2023-02-22T18:11:34.295Z,13.50
2023-02-22T18:16:36.745Z,13.30
2023-02-22T18:21:38.736Z,13.40
2023-02-22T18:26:40.214Z,12.20
2023-02-22T18:31:41.529Z,10.85
2023-02-22T18:36:42.940Z,10.47
2023-02-22T18:41:48.471Z,10.85
2023-02-22T18:46:49.819Z,11.45
2023-02-22T18:51:51.124Z,11.67
2023-02-22T18:56:52.387Z,11.30
2023-02-22T19:01:53.726Z,10.80
2023-02-22T19:06:55.314Z,10.57
2023-02-22T19:11:56.562Z,13.07
2023-02-22T19:17:01.395Z,13.87
2023-02-22T19:22:02.645Z,13.35
2023-02-22T19:27:05.319Z,14.07
2023-02-22T19:32:07.719Z,17.73
2023-02-22T19:37:11.112Z,16.63
2023-02-22T19:42:12.355Z,15.67
2023-02-22T19:47:13.664Z,14.98
2023-02-22T19:52:14.907Z,14.03
2023-02-22T19:57:16.206Z,13.90
2023-02-22T20:02:17.734Z,14.15
2023-02-22T20:07:19.054Z,16.03
2023-02-22T20:12:21.389Z,16.15
2023-02-22T20:17:22.656Z,17.23
2023-02-22T20:22:23.973Z,18.90
2023-02-22T20:27:25.369Z,18.67
2023-02-22T20:32:29.903Z,18.60
2023-02-22T20:37:31.920Z,18.13
2023-02-22T20:42:33.231Z,18.17
2023-02-22T20:47:34.623Z,17.10
2023-02-22T20:52:36.113Z,17.15
2023-02-22T20:57:37.865Z,18.37
2023-02-22T21:02:39.157Z,18.52
2023-02-22T21:07:40.450Z,15.93
2023-02-22T21:12:42.797Z,17.77
2023-02-22T21:17:47.530Z,18.38
2023-02-22T21:22:50.836Z,19.70
2023-02-22T21:27:52.794Z,17.85
2023-02-22T21:32:54.729Z,17.60
2023-02-22T21:37:56.050Z,18.33
2023-02-22T21:42:57.590Z,21.02
2023-02-22T21:47:59.366Z,18.63
2023-02-22T21:53:00.686Z,19.42
2023-02-22T21:58:01.999Z,18.53
2023-02-22T22:03:09.691Z,18.60
2023-02-22T22:08:16.484Z,18.88
2023-02-22T22:13:17.845Z,17.80
2023-02-22T22:18:19.196Z,17.63
2023-02-22T22:23:20.522Z,18.20
2023-02-22T22:28:21.794Z,20.13
2023-02-22T22:33:23.113Z,20.73
2023-02-22T22:38:26.623Z,19.60
2023-02-22T22:43:29.200Z,20.90
2023-02-22T22:48:31.420Z,21.57
2023-02-22T22:53:33.944Z,21.00
2023-02-22T22:58:35.560Z,21.33
2023-02-22T23:03:36.993Z,21.30
2023-02-22T23:08:42.959Z,22.73
2023-02-22T23:13:44.523Z,19.77
2023-02-22T23:18:45.883Z,19.65
2023-02-22T23:23:51.509Z,20.33
2023-02-22T23:28:54.702Z,22.63
2023-02-22T23:33:58.383Z,22.75
2023-02-22T23:38:59.674Z,19.63
2023-02-22T23:44:00.920Z,19.98
2023-02-22T23:49:02.702Z,19.75
2023-02-22T23:54:06.015Z,18.83
2023-02-22T23:59:12.483Z,19.48
